• Join FlightAware (Why Join?)
  • Login
  • US Flag 
11:50PM EST


 

Airport Tracker/Info


-or-


 

Live Flight TrackerFlight Track Log ✈ JA-614J ✈ 10-Apr-2013 ✈ RJAA / NRT - VHHH / HKG

Flight Track Log - Related Links

Times and Time Zones

All times are in EDT time to prevent confusion due to time zone crossing. See the JA-614J flight status page for this flight to view local times or setup timezone preferences in your user account.

Time Position Orientation Groundspeed Altitude Reporting Facility
EDT Latitude Longitude Course Direction KTS MPH feet Rate Location/Type
06:01AM 35.6680 140.4450 149° Southeast 230 265 4,900  Level FlightAware
06:01AM 35.6570 140.4530 149° Southeast 252 290 5,100 2,220 Climbing FlightAware
06:01AM 35.6210 140.4790 150° Southeast 272 313 6,600 2,640 Climbing FlightAware
06:02AM 35.6040 140.4850 164° South 270 311 7,300 1,020 Climbing FlightAware
06:04AM 35.5350 140.2829 247° West  Level Estimated
06:05AM 35.4968 140.1716 247° West  Level Estimated
06:06AM 35.4586 140.0603 247° West  Level Estimated
06:07AM 35.4202 139.9492 247° West  Level Estimated
06:08AM 35.3817 139.8382 247° West  Level Estimated
06:09AM 35.3431 139.7273 247° West  Level Estimated
06:10AM 35.3045 139.6165 247° West  Level Estimated
06:11AM 35.2657 139.5059 247° West  Level Estimated
06:12AM 35.2268 139.3953 247° West  Level Estimated
06:13AM 35.1878 139.2848 247° West  Level Estimated
06:14AM 35.1487 139.1744 247° West  Level Estimated
06:15AM 35.1095 139.0642 247° West  Level Estimated
06:16AM 35.0702 138.9540 246° West  Level Estimated
06:17AM 35.0308 138.8440 246° West  Level Estimated
06:18AM 34.9913 138.7340 246° West  Level Estimated
06:18AM 35.1370 138.9460 246° West 315 362 24,000  Level FlightAware
06:19AM 35.1300 138.8740 263° West 323 372 24,000  Level FlightAware
06:20AM 35.1300 138.7930 270° West 321 369 24,000  Level FlightAware
06:20AM 35.1300 138.7200 270° West 319 367 24,000  Level FlightAware
06:21AM 35.1300 138.6380 270° West 316 364 24,000  Level FlightAware
06:22AM 35.1260 138.5650 266° West 318 366 24,000  Level FlightAware
06:22AM 35.1230 138.5010 267° West 321 369 24,000  Level FlightAware
06:23AM 35.1190 138.4130 267° West 324 373 24,000  Level FlightAware
06:24AM 35.1160 138.3450 267° West 321 369 24,000  Level FlightAware
06:25AM 35.1120 138.2570 267° West 324 373 24,000  Level FlightAware
06:25AM 35.1090 138.1860 267° West 323 372 24,000  Level FlightAware
06:26AM 35.1060 138.1150 267° West 323 372 24,000  Level FlightAware
06:27AM 35.1030 138.0580 266° West 324 373 24,000  Level FlightAware
06:27AM 35.0980 137.9580 267° West 323 372 24,000  Level FlightAware
06:28AM 35.0950 137.8770 267° West 322 371 24,000  Level FlightAware
06:29AM 35.0910 137.7990 266° West 322 371 24,000  Level FlightAware
06:29AM 35.0870 137.7290 266° West 321 369 24,000  Level FlightAware
06:30AM 35.0830 137.6450 267° West 321 369 24,000  Level FlightAware
06:31AM 35.0800 137.5830 267° West 321 369 24,000  Level FlightAware
06:31AM 35.0770 137.5160 267° West 321 369 24,000  Level FlightAware
06:33AM 35.0410 137.3560 255° West 312 359 24,000  Level FlightAware
06:36AM 34.9367 137.0914 244° Southwest  Level Estimated
06:37AM 34.8927 136.9806 244° Southwest  Level Estimated
06:38AM 34.8487 136.8699 244° Southwest  Level Estimated
06:39AM 34.8045 136.7594 244° Southwest  Level Estimated
06:40AM 34.7603 136.6489 244° Southwest  Level Estimated
06:41AM 34.7159 136.5386 244° Southwest  Level Estimated
06:42AM 34.6715 136.4284 244° Southwest  Level Estimated
06:43AM 34.6269 136.3183 244° Southwest  Level Estimated
06:44AM 34.5823 136.2083 244° Southwest  Level Estimated
06:45AM 34.5376 136.0985 244° Southwest  Level Estimated
06:46AM 34.4927 135.9887 244° Southwest  Level Estimated
06:47AM 34.4479 135.8795 244° Southwest  Level Estimated
06:48AM 34.4031 135.7704 244° Southwest  Level Estimated
06:48AM 34.4980 135.9710 244° Southwest 305 351 24,000  Level FlightAware
06:48AM 34.4700 135.9060 242° Southwest 305 351 24,000  Level FlightAware
06:49AM 34.4400 135.8370 242° Southwest 304 350 24,000  Level FlightAware
06:50AM 34.4170 135.7840 242° Southwest 305 351 24,000  Level FlightAware
06:51AM 34.3850 135.7110 242° Southwest 296 341 24,000  Level FlightAware
06:51AM 34.3600 135.6530 242° Southwest 286 329 24,000  Level FlightAware
06:52AM 34.3330 135.5890 243° Southwest 289 333 24,000  Level FlightAware
06:53AM 34.3090 135.5340 242° Southwest 290 334 24,000  Level FlightAware
06:53AM 34.2800 135.4670 242° Southwest 286 329 24,000  Level FlightAware
06:54AM 34.2550 135.4110 242° Southwest 286 329 24,000  Level FlightAware
06:55AM 34.2290 135.3510 242° Southwest 287 330 24,000  Level FlightAware
06:55AM 34.2030 135.2910 242° Southwest 287 330 24,000  Level FlightAware
06:56AM 34.1770 135.2320 242° Southwest 288 331 24,000  Level FlightAware
06:57AM 34.1480 135.1670 242° Southwest 291 335 24,000  Level FlightAware
06:58AM 34.1240 135.1120 242° Southwest 293 337 24,000  Level FlightAware
06:58AM 34.0970 135.0500 242° Southwest 293 337 24,000  Level FlightAware
06:59AM 34.0660 134.9810 242° Southwest 295 339 24,000  Level FlightAware
07:00AM 34.0410 134.9250 242° Southwest 294 338 24,000  Level FlightAware
07:00AM 34.0120 134.8590 242° Southwest 293 337 24,000  Level FlightAware
07:01AM 33.9860 134.8000 242° Southwest 292 336 24,000  Level FlightAware
07:02AM 33.9600 134.7420 242° Southwest 293 337 24,000  Level FlightAware
07:02AM 33.9310 134.6770 242° Southwest 294 338 24,000  Level FlightAware
07:03AM 33.9060 134.6220 241° Southwest 295 339 24,000  Level FlightAware
07:04AM 33.8830 134.5700 242° Southwest 302 348 24,000  Level FlightAware
07:05AM 33.8460 134.4870 242° Southwest 310 357 24,000  Level FlightAware
07:05AM 33.8170 134.4280 239° Southwest 312 359 24,000  Level FlightAware
07:06AM 33.7850 134.3640 239° Southwest 310 357 24,000  Level FlightAware
07:07AM 33.7540 134.3020 239° Southwest 311 358 24,000  Level FlightAware
07:07AM 33.7200 134.2350 239° Southwest 314 361 24,000  Level FlightAware
07:08AM 33.6920 134.1790 239° Southwest 315 362 24,000  Level FlightAware
07:09AM 33.6600 134.1160 239° Southwest 315 362 24,000 540 Level FlightAware
07:09AM 33.6280 134.0520 239° Southwest 296 341 24,800 1,440 Climbing FlightAware
07:10AM 33.5990 133.9970 238° Southwest 280 322 26,100 1,920 Climbing FlightAware
07:11AM 33.5680 133.9350 239° Southwest 284 327 27,600 1,740 Climbing FlightAware
07:12AM 33.5420 133.8830 239° Southwest 289 333 28,600 1,740 Climbing FlightAware
07:12AM 33.5130 133.8260 239° Southwest 286 329 30,100 1,920 Climbing FlightAware
07:13AM 33.4860 133.7740 238° Southwest 293 337 31,200 2,100 Climbing FlightAware
07:14AM 33.4530 133.7100 238° Southwest 283 326 32,900 1,860 Climbing FlightAware
07:14AM 33.4260 133.6560 239° Southwest 279 321 33,900 720 Climbing FlightAware
07:15AM 33.3950 133.5970 238° Southwest 275 316 34,000 60 Climbing FlightAware
07:16AM 33.3680 133.5440 239° Southwest 285 328 34,000  Level FlightAware
07:16AM 33.3370 133.4830 239° Southwest 297 342 34,000  Level FlightAware
07:17AM 33.3080 133.4270 238° Southwest 300 345 34,000  Level FlightAware
07:18AM 33.2790 133.3710 238° Southwest 292 336 34,000  Level FlightAware
07:18AM 33.2500 133.3160 238° Southwest 294 338 34,000 -900 Level FlightAware
07:19AM 33.2180 133.2530 239° Southwest 290 334 32,800 -1,920 Descending FlightAware
07:20AM 33.1930 133.2060 238° Southwest 285 328 31,500 -2,220 Descending FlightAware
07:21AM 33.1590 133.1390 239° Southwest 280 322 29,700 -2,160 Descending FlightAware
07:21AM 33.1310 133.0850 238° Southwest 274 315 28,300 -1,200 Descending FlightAware
07:22AM 33.1020 133.0300 238° Southwest 297 342 28,000 -240 Descending FlightAware
07:23AM 33.0690 132.9670 238° Southwest 320 368 28,000  Level FlightAware
07:23AM 33.0330 132.8980 238° Southwest 320 368 28,000  Level FlightAware
07:24AM 33.0030 132.8410 238° Southwest 323 372 28,000  Level FlightAware
07:25AM 32.9690 132.7750 238° Southwest 339 390 28,000  Level FlightAware
07:26AM 32.9310 132.7040 237° Southwest 341 392 28,000  Level FlightAware
07:26AM 32.8990 132.6430 238° Southwest 338 389 28,000  Level FlightAware
07:27AM 32.8600 132.5690 238° Southwest 338 389 28,000  Level FlightAware
07:28AM 32.8270 132.5070 238° Southwest 336 387 28,000  Level FlightAware
07:28AM 32.7950 132.4450 238° Southwest 336 387 28,000  Level FlightAware
07:29AM 32.7570 132.3750 237° Southwest 338 389 28,000  Level FlightAware
07:30AM 32.7240 132.3120 238° Southwest 340 391 28,000  Level FlightAware
07:30AM 32.6860 132.2410 238° Southwest 339 390 28,000  Level FlightAware
07:31AM 32.6520 132.1770 238° Southwest 339 390 28,000  Level FlightAware
07:32AM 32.6120 132.1100 235° Southwest 343 395 28,000  Level FlightAware
07:33AM 32.5750 132.0460 236° Southwest 346 398 28,000  Level FlightAware
07:33AM 32.5380 131.9840 235° Southwest 345 397 28,000  Level FlightAware
07:34AM 32.4980 131.9150 236° Southwest 346 398 28,000  Level FlightAware
07:35AM 32.4610 131.8530 235° Southwest 347 399 28,000  Level FlightAware
07:35AM 32.4200 131.7830 235° Southwest 349 402 28,000  Level FlightAware
07:36AM 32.3820 131.7190 235° Southwest 350 403 28,000  Level FlightAware
07:37AM 32.3440 131.6560 234° Southwest 351 404 28,000  Level FlightAware
07:37AM 32.3090 131.5960 235° Southwest 352 405 28,000  Level FlightAware
07:38AM 32.2660 131.5240 235° Southwest 352 405 28,000  Level FlightAware
07:39AM 32.2280 131.4620 234° Southwest 350 403 28,000  Level FlightAware
07:40AM 32.1860 131.3910 235° Southwest 347 399 28,000  Level FlightAware
07:40AM 32.1480 131.3280 235° Southwest 348 400 28,000  Level FlightAware
07:41AM 32.1190 131.2790 235° Southwest 347 399 28,000  Level FlightAware
07:42AM 32.0710 131.2000 234° Southwest 332 382 28,000  Level FlightAware
07:42AM 32.0360 131.1420 235° Southwest 331 381 28,000  Level FlightAware
07:43AM 31.9950 131.0730 235° Southwest 337 388 28,000  Level FlightAware
07:44AM 31.9580 131.0120 234° Southwest 343 395 28,000  Level FlightAware
07:44AM 31.9240 130.9550 235° Southwest 342 394 28,000  Level FlightAware
07:45AM 31.8810 130.8850 234° Southwest 334 384 28,000  Level FlightAware
07:46AM 31.8470 130.8290 234° Southwest 330 380 28,000  Level FlightAware
07:47AM 31.8070 130.7620 235° Southwest 329 379 28,000  Level FlightAware
07:47AM 31.7740 130.7080 234° Southwest 331 381 28,000  Level FlightAware
07:48AM 31.7310 130.6390 234° Southwest 333 383 28,000  Level FlightAware
07:49AM 31.6910 130.5720 235° Southwest 336 387 28,000  Level FlightAware
07:49AM 31.6560 130.5190 232° Southwest 341 392 28,000  Level FlightAware
07:50AM 31.6130 130.4550 232° Southwest 349 402 28,000  Level FlightAware
07:51AM 31.5680 130.3870 232° Southwest 353 406 28,000  Level FlightAware
07:51AM 31.5310 130.3310 232° Southwest 346 398 28,000  Level FlightAware
07:52AM 31.4850 130.2610 232° Southwest 346 398 28,000  Level FlightAware
07:53AM 31.4450 130.2010 232° Southwest 350 403 28,000  Level FlightAware
07:54AM 31.4090 130.1460 233° Southwest 349 402 28,000  Level FlightAware
07:54AM 31.3720 130.0900 232° Southwest 350 403 28,000  Level FlightAware
07:55AM 31.3250 130.0200 232° Southwest 354 407 28,000  Level FlightAware
07:56AM 31.2770 129.9470 232° Southwest 353 406 28,000  Level FlightAware
07:56AM 31.2480 129.9040 232° Southwest 352 405 28,000  Level FlightAware
07:57AM 31.2010 129.8330 232° Southwest 354 407 28,000  Level FlightAware
07:58AM 31.1530 129.7620 232° Southwest 350 403 28,000  Level FlightAware
07:58AM 31.1190 129.7110 232° Southwest 350 403 28,000  Level FlightAware
07:59AM 31.0770 129.6480 232° Southwest 350 403 28,000  Level FlightAware
08:00AM 31.0430 129.5970 232° Southwest 350 403 28,000  Level FlightAware
08:01AM 31.0090 129.5470 232° Southwest 350 403 28,000  Level FlightAware
08:01AM 30.9750 129.4960 232° Southwest 350 403 28,000 60 Level FlightAware
08:04AM 30.8688 129.2655 242° Southwest  Level Estimated
08:05AM 30.8224 129.1654 242° Southwest  Level Estimated
08:06AM 30.7760 129.0654 242° Southwest  Level Estimated
08:07AM 30.7296 128.9656 242° Southwest  Level Estimated
08:08AM 30.6830 128.8658 242° Southwest  Level Estimated
08:09AM 30.6364 128.7661 241° Southwest  Level Estimated
08:10AM 30.5897 128.6665 241° Southwest  Level Estimated
08:11AM 30.5429 128.5670 241° Southwest  Level Estimated
08:12AM 30.4961 128.4677 241° Southwest  Level Estimated
08:13AM 30.4491 128.3683 241° Southwest  Level Estimated
08:14AM 30.4021 128.2691 241° Southwest  Level Estimated
08:15AM 30.3550 128.1700 241° Southwest  Level Estimated
08:16AM 30.3079 128.0710 241° Southwest  Level Estimated
08:17AM 30.2607 127.9721 241° Southwest  Level Estimated
08:18AM 30.2134 127.8733 241° Southwest  Level Estimated
08:19AM 30.1660 127.7746 241° Southwest  Level Estimated
08:20AM 30.1185 127.6760 241° Southwest  Level Estimated
08:21AM 30.0710 127.5774 241° Southwest  Level Estimated
08:22AM 30.0238 127.4797 241° Southwest  Level Estimated
08:23AM 29.9764 127.3821 241° Southwest  Level Estimated
08:24AM 29.9291 127.2845 241° Southwest  Level Estimated
08:25AM 29.8816 127.1871 241° Southwest  Level Estimated
08:26AM 29.8340 127.0898 241° Southwest  Level Estimated
08:27AM 29.7864 126.9925 241° Southwest  Level Estimated
08:28AM 29.7388 126.8953 241° Southwest  Level Estimated
08:29AM 29.6910 126.7982 240° Southwest  Level Estimated
08:30AM 29.6432 126.7013 240° Southwest  Level Estimated
08:31AM 29.5953 126.6044 240° Southwest  Level Estimated
08:32AM 29.5473 126.5076 240° Southwest  Level Estimated
08:33AM 29.4993 126.4109 240° Southwest  Level Estimated
08:34AM 29.4512 126.3143 240° Southwest  Level Estimated
08:35AM 29.4030 126.2177 240° Southwest  Level Estimated
08:36AM 29.3548 126.1213 240° Southwest  Level Estimated
08:37AM 29.3068 126.0257 240° Southwest  Level Estimated
08:38AM 29.2588 125.9301 240° Southwest  Level Estimated
08:39AM 29.2107 125.8347 240° Southwest  Level Estimated
08:40AM 29.1625 125.7393 240° Southwest  Level Estimated
08:41AM 29.1143 125.6440 240° Southwest  Level Estimated
08:42AM 29.0660 125.5488 240° Southwest  Level Estimated
08:43AM 29.0176 125.4537 240° Southwest  Level Estimated
08:44AM 28.9692 125.3587 240° Southwest  Level Estimated
08:45AM 28.9207 125.2637 240° Southwest  Level Estimated
08:46AM 28.8721 125.1689 240° Southwest  Level Estimated
08:47AM 28.8235 125.0742 240° Southwest  Level Estimated
08:48AM 28.7748 124.9795 240° Southwest  Level Estimated
08:49AM 28.7260 124.8849 240° Southwest  Level Estimated
08:50AM 28.6772 124.7904 240° Southwest  Level Estimated
08:51AM 28.6283 124.6960 239° Southwest  Level Estimated
08:52AM 28.5793 124.6017 239° Southwest  Level Estimated
08:53AM 28.5303 124.5075 239° Southwest  Level Estimated
08:54AM 28.4812 124.4134 239° Southwest  Level Estimated
08:55AM 28.4321 124.3193 239° Southwest  Level Estimated
08:56AM 28.3829 124.2254 239° Southwest  Level Estimated
08:57AM 28.3336 124.1315 239° Southwest  Level Estimated
08:58AM 28.2842 124.0377 239° Southwest  Level Estimated
08:59AM 28.2348 123.9440 239° Southwest  Level Estimated
09:00AM 28.1853 123.8504 239° Southwest  Level Estimated
09:01AM 28.1358 123.7569 239° Southwest  Level Estimated
09:02AM 28.0862 123.6634 239° Southwest  Level Estimated
09:03AM 28.0365 123.5701 239° Southwest  Level Estimated
09:04AM 27.9868 123.4768 239° Southwest  Level Estimated
09:05AM 27.9370 123.3836 239° Southwest  Level Estimated
09:06AM 27.8875 123.2912 239° Southwest  Level Estimated
09:07AM 27.8379 123.1989 239° Southwest  Level Estimated
09:08AM 27.7883 123.1066 239° Southwest  Level Estimated
09:09AM 27.7386 123.0144 239° Southwest  Level Estimated
09:10AM 27.6889 122.9223 239° Southwest  Level Estimated
09:11AM 27.6391 122.8303 239° Southwest  Level Estimated
09:12AM 27.5892 122.7384 239° Southwest  Level Estimated
09:13AM 27.5393 122.6466 239° Southwest  Level Estimated
09:14AM 27.4893 122.5548 238° Southwest  Level Estimated
09:15AM 27.4392 122.4632 238° Southwest  Level Estimated
09:16AM 27.3891 122.3716 238° Southwest  Level Estimated
09:17AM 27.3389 122.2801 238° Southwest  Level Estimated
09:18AM 27.2891 122.1893 238° Southwest  Level Estimated
09:19AM 27.2391 122.0986 238° Southwest  Level Estimated
09:20AM 27.1891 122.0080 238° Southwest  Level Estimated
09:20AM 26.0230 122.5930 238° Southwest 380 437 34,000  Level FlightAware
09:21AM 27.1391 121.9174 238° Southwest  Level Estimated
09:21AM 25.9760 122.5310 230° Southwest 381 438 34,000  Level FlightAware
09:22AM 25.9260 122.4660 229° Southwest 383 441 34,000  Level FlightAware
09:22AM 25.8770 122.4050 228° Southwest 385 443 34,000  Level FlightAware
09:23AM 25.8300 122.3450 229° Southwest 383 441 34,000  Level FlightAware
09:24AM 25.7820 122.2860 228° Southwest 384 442 34,000  Level FlightAware
09:24AM 25.7360 122.2280 229° Southwest 386 444 34,000  Level FlightAware
09:25AM 25.6790 122.1570 228° Southwest 386 444 34,000  Level FlightAware
09:26AM 25.6300 122.0960 228° Southwest 387 445 34,000  Level FlightAware
09:27AM 25.5830 122.0370 229° Southwest 386 444 34,000  Level FlightAware
09:27AM 25.5320 121.9710 229° Southwest 387 445 34,000  Level FlightAware
09:28AM 25.4850 121.9120 229° Southwest 387 445 34,000  Level FlightAware
09:29AM 25.4410 121.8550 229° Southwest 388 447 34,000  Level FlightAware
09:29AM 25.3830 121.7830 228° Southwest 388 447 34,000  Level FlightAware
09:30AM 25.3350 121.7210 229° Southwest 387 445 34,000  Level FlightAware
09:31AM 25.2820 121.6550 228° Southwest 387 445 34,000  Level FlightAware
09:32AM 25.2430 121.6050 229° Southwest 389 448 34,000  Level FlightAware
09:34AM 25.1818 121.4296 249° West  Level Estimated
09:34AM 25.0910 121.4110 249° West 386 444 34,000  Level FlightAware
09:34AM 25.0470 121.3530 230° Southwest 386 444 34,000  Level FlightAware
09:35AM 25.0010 121.2940 229° Southwest 387 445 34,000  Level FlightAware
09:36AM 24.9610 121.2440 229° Southwest 387 445 34,000  Level FlightAware
09:37AM 24.9110 121.1800 229° Southwest 387 445 34,000  Level FlightAware
09:37AM 24.8430 121.0900 230° Southwest 391 450 34,000  Level FlightAware
09:38AM 24.7750 120.9970 231° Southwest 392 451 34,000  Level FlightAware
09:39AM 24.7360 120.9430 232° Southwest 392 451 34,000  Level FlightAware
09:39AM 24.6910 120.8810 231° Southwest 392 451 34,000  Level FlightAware
09:40AM 24.6410 120.8120 231° Southwest 391 450 34,000  Level FlightAware
09:41AM 24.5980 120.7530 231° Southwest 391 450 34,000  Level FlightAware
09:42AM 24.5460 120.6820 231° Southwest 390 449 34,000  Level FlightAware
09:42AM 24.4980 120.6160 231° Southwest 384 442 34,000  Level FlightAware
09:43AM 24.4490 120.5490 231° Southwest 385 443 34,000  Level FlightAware
09:44AM 24.4150 120.5020 232° Southwest 388 447 34,000  Level FlightAware
09:44AM 24.3610 120.4270 232° Southwest 391 450 34,000  Level FlightAware
09:45AM 24.3140 120.3630 231° Southwest 393 452 34,000  Level FlightAware
09:46AM 24.2700 120.3040 231° Southwest 387 445 34,000  Level FlightAware
09:46AM 24.2180 120.2330 231° Southwest 387 445 34,000  Level FlightAware
09:47AM 24.1780 120.1780 231° Southwest 387 445 34,000  Level FlightAware
09:48AM 24.1240 120.1040 231° Southwest 388 447 34,000  Level FlightAware
09:49AM 24.0760 120.0400 231° Southwest 389 448 34,000  Level FlightAware
09:49AM 24.0270 119.9730 231° Southwest 391 450 34,000  Level FlightAware
09:50AM 23.9790 119.9080 231° Southwest 392 451 34,000  Level FlightAware
09:51AM 23.9200 119.8280 231° Southwest 394 453 34,000  Level FlightAware
09:52AM 23.8750 119.7680 231° Southwest 394 453 34,000  Level FlightAware
09:52AM 23.8160 119.6880 231° Southwest 395 455 34,000  Level FlightAware
09:53AM 23.7690 119.6250 231° Southwest 397 457 34,000  Level FlightAware
09:54AM 23.7230 119.5630 231° Southwest 398 458 34,000  Level FlightAware
09:54AM 23.6730 119.4950 231° Southwest 399 459 34,000  Level FlightAware
09:55AM 23.6230 119.4290 230° Southwest 400 460 34,000  Level FlightAware
09:56AM 23.5830 119.3760 231° Southwest 397 457 34,000  Level FlightAware
09:56AM 23.5350 119.3120 231° Southwest 399 459 34,000  Level FlightAware
09:57AM 23.4780 119.2350 231° Southwest 402 463 34,000  Level FlightAware
09:58AM 23.4300 119.1700 231° Southwest 401 461 34,000  Level FlightAware
09:59AM 23.3830 119.1080 230° Southwest 402 463 34,000  Level FlightAware
09:59AM 23.3310 119.0390 231° Southwest 402 463 34,000  Level FlightAware
10:00AM 23.2760 118.9660 231° Southwest 403 464 34,000  Level FlightAware
10:01AM 23.2210 118.8930 231° Southwest 405 466 34,000  Level FlightAware
10:02AM 23.1660 118.8210 230° Southwest 405 466 34,000  Level FlightAware
10:02AM 23.1180 118.7560 231° Southwest 407 468 34,000  Level FlightAware
10:03AM 23.0690 118.6920 230° Southwest 406 467 34,000  Level FlightAware
10:04AM 23.0190 118.6270 230° Southwest 407 468 34,000  Level FlightAware
10:04AM 22.9780 118.5740 230° Southwest 407 468 34,000  Level FlightAware
10:05AM 22.9090 118.4650 236° Southwest 394 453 34,000  Level FlightAware
10:06AM 22.8690 118.3970 237° Southwest 388 447 34,000  Level FlightAware
10:07AM 22.8130 118.3030 237° Southwest 387 445 34,000  Level FlightAware
10:08AM 22.7800 118.2480 237° Southwest 390 449 34,000  Level FlightAware
10:08AM 22.7350 118.1720 237° Southwest 392 451 34,000  Level FlightAware
10:09AM 22.6880 118.0930 237° Southwest 394 453 34,000  Level FlightAware
10:10AM 22.6480 118.0270 237° Southwest 395 455 34,000  Level FlightAware
10:11AM 22.6070 117.9590 237° Southwest 395 455 34,000  Level FlightAware
10:11AM 22.5640 117.8870 237° Southwest 393 452 34,000  Level FlightAware
10:12AM 22.5220 117.8150 238° Southwest 390 449 34,000  Level FlightAware
10:13AM 22.4800 117.7460 237° Southwest 390 449 34,000  Level FlightAware
10:13AM 22.4410 117.6800 237° Southwest 390 449 34,000  Level FlightAware
10:14AM 22.4010 117.6130 237° Southwest 393 452 34,000  Level FlightAware
10:15AM 22.3490 117.5260 237° Southwest 392 451 34,000  Level FlightAware
10:16AM 22.3150 117.4700 237° Southwest 392 451 34,000  Level FlightAware
10:16AM 22.2730 117.4000 237° Southwest 392 451 34,000  Level FlightAware
10:17AM 22.2400 117.3450 237° Southwest 392 451 34,000  Level FlightAware
10:18AM 22.2060 117.2890 237° Southwest 392 451 34,000  Level FlightAware
10:18AM 22.1730 117.2330 238° Southwest 392 451 34,000  Level FlightAware
10:19AM 22.1390 117.1770 237° Southwest 392 451 34,000  Level FlightAware
10:19AM 22.3250 117.0270 323° Northwest 34,000  Level FlightAware
10:21AM 22.3220 116.8790 269° West 362 417 34,000  Level FlightAware
10:21AM 22.3200 116.8190 268° West 362 417 34,000  Level FlightAware
10:22AM 22.3170 116.7420 268° West 362 417 34,000  Level FlightAware
10:23AM 22.3160 116.6310 269° West 333 383 34,000  Level FlightAware
10:24AM 22.3150 116.5580 269° West 336 387 34,000  Level FlightAware
10:25AM 22.3120 116.4890 267° West 336 387 34,000  Level FlightAware
10:25AM 22.3100 116.4320 268° West 336 387 34,000 -1,500 Level FlightAware
10:26AM 22.3090 116.3400 269° West 324 373 31,900 -1,500 Descending FlightAware
10:27AM 22.3070 116.2850 268° West 324 373 31,900  Level FlightAware
10:27AM 22.3050 116.2300 268° West 324 373 31,900  Level FlightAware
10:28AM 22.3030 116.1610 268° West 324 373 31,900  Level FlightAware
10:29AM 22.3010 116.1060 268° West 324 373 31,900  Level FlightAware
10:30AM 22.3000 116.0510 269° West 324 373 31,900  Level FlightAware
10:30AM 22.2980 115.9960 268° West 324 373 31,900  Level FlightAware
10:31AM 22.2960 115.9410 268° West 324 373 31,900  Level FlightAware
10:32AM 22.2940 115.8860 268° West 324 373 31,900  Level FlightAware
10:32AM 22.2920 115.8170 268° West 324 373 31,900  Level FlightAware
10:33AM 22.2910 115.7760 268° West 324 373 31,900  Level FlightAware
10:34AM 22.2880 115.7070 267° West 324 373 31,900  Level FlightAware
10:34AM 22.2870 115.6520 269° West 324 373 31,900  Level FlightAware
10:35AM 22.2850 115.5970 268° West 324 373 31,900 -2,700 Level FlightAware
10:38AM 22.2894 115.3612 271° West  Level Estimated
10:39AM 22.2911 115.2623 271° West  Level Estimated
10:40AM 22.2928 115.1633 271° West  Level Estimated
10:41AM 22.2944 115.0644 271° West  Level Estimated
10:42AM 22.2960 114.9654 271° West  Level Estimated
10:42AM 22.2640 114.7650 271° West 314 361 12,700  Level FlightAware
10:42AM 22.2620 114.6980 268° West 312 359 12,500 -180 Descending FlightAware
10:43AM 22.2590 114.6450 267° West 312 359 12,500  Level FlightAware
10:44AM 22.2570 114.5920 268° West 312 359 12,500 -840 Level FlightAware
10:45AM 22.2550 114.4980 269° West 303 349 11,300 -780 Descending FlightAware
10:45AM 22.2520 114.4360 267° West 303 349 11,300  Level FlightAware
10:46AM 22.2490 114.3710 267° West 303 349 11,300 -780 Level FlightAware
10:49AM 22.2787 114.1457 278° West  Level Estimated
10:50AM 22.2916 114.0477 278° West  Level Estimated
10:51AM 22.3043 113.9497 278° West  Level Estimated
10:52AM 22.3089 113.9146 278° West  Level Estimated
10:53AM 22.3089 113.9146 110° East  Level Estimated
10:54AM 22.3089 113.9146 110° East  Level Estimated
10:55AM 22.3089 113.9146 110° East  Level Estimated
10:56AM 22.3089 113.9146 110° East  Level Estimated
10:57AM 22.3089 113.9146 110° East  Level Estimated
10:58AM 22.3089 113.9146 110° East  Level Estimated
10:59AM 22.3089 113.9146 110° East  Level Estimated
11:00AM 22.3089 113.9146 110° East  Level Estimated
11:00AM 22.3000 113.8640 110° East 146 168 600  Level FlightAware
11:01AM 22.3060 113.8820 70° East 141 162 200 -840 Descending FlightAware
11:01AM 22.3130 113.9040 71° East 141 162 -420 Descending FlightAware